Time;durP1;ratioP1;P1;durP2;ratioP2;P2;SDS_P1;SDS_P2;PMS_P1;PMS_P2;Temp;Humidity;BMP_temperature;BMP_pressure;BME280_temperature;BME280_humidity;BME280_pressure;Samples;Min_cycle;Max_cycle;Signal;HPM_P1;HPM_P2
2023/05/24 00:01:56;;;;;;;;;;;;;;;15.31;100.00;96219.59;5025613;28;20058;-83
2023/05/24 00:04:23;;;;;;;;;;;;;;;15.29;100.00;96227.22;5033336;28;19952;-83
2023/05/24 00:06:53;;;;;;;;;;;;;;;15.27;100.00;96223.94;5029402;28;19933;-83
2023/05/24 00:09:20;;;;;;;;;;;;;;;15.31;100.00;96216.91;5030426;28;19971;-83
2023/05/24 00:11:47;;;;;;;;;;;;;;;15.33;100.00;96218.25;5036525;28;19960;-83
2023/05/24 00:14:13;;;;;;;;;;;;;;;15.37;100.00;96210.38;5037124;28;19929;-83
2023/05/24 00:16:40;;;;;;;;;;;;;;;15.38;100.00;96215.56;5027495;28;19925;-83
2023/05/24 00:19:09;;;;;;;;;;;;;;;15.43;100.00;96217.47;5035859;28;19944;-83
2023/05/24 00:21:36;;;;;;;;;;;;;;;15.45;100.00;96212.59;5039194;28;19983;-83
2023/05/24 00:24:05;;;;;;;;;;;;;;;15.48;100.00;96217.53;5032666;28;19931;-83
2023/05/24 00:26:32;;;;;;;;;;;;;;;15.47;100.00;96230.31;5034450;28;19929;-83
2023/05/24 00:28:58;;;;;;;;;;;;;;;15.48;100.00;96221.03;5038162;28;19925;-83
2023/05/24 00:31:25;;;;;;;;;;;;;;;15.47;100.00;96224.88;5037458;28;20012;-83
2023/05/24 00:33:52;;;;;;;;;;;;;;;15.44;100.00;96221.84;5030165;28;19936;-83
2023/05/24 00:36:19;;;;;;;;;;;;;;;15.45;100.00;96221.59;5029638;28;19933;-83
2023/05/24 00:38:47;;;;;;;;;;;;;;;15.46;100.00;96219.69;5030365;28;19932;-83
2023/05/24 00:41:17;;;;;;;;;;;;;;;15.42;100.00;96222.09;5042737;28;19972;-83
2023/05/24 00:43:45;;;;;;;;;;;;;;;15.26;100.00;96227.72;5033523;28;19932;-83
2023/05/24 00:46:16;;;;;;;;;;;;;;;15.11;100.00;96229.28;5034858;28;19933;-83
2023/05/24 00:48:43;;;;;;;;;;;;;;;15.08;100.00;96232.50;5028386;28;19968;-83
2023/05/24 00:51:10;;;;;;;;;;;;;;;15.05;100.00;96227.59;5031924;28;19941;-82
2023/05/24 00:53:37;;;;;;;;;;;;;;;15.01;100.00;96222.94;5036228;28;19933;-83
2023/05/24 00:56:04;;;;;;;;;;;;;;;15.04;100.00;96220.53;5041276;28;19925;-83
2023/05/24 00:58:33;;;;;;;;;;;;;;;15.10;100.00;96224.09;5041445;28;19925;-83
2023/05/24 01:01:01;;;;;;;;;;;;;;;15.07;100.00;96214.53;5029211;28;19979;-82
2023/05/24 01:03:29;;;;;;;;;;;;;;;15.10;100.00;96213.22;5048781;28;20015;-83
2023/05/24 01:05:56;;;;;;;;;;;;;;;15.13;100.00;96223.56;5042093;28;19925;-83
2023/05/24 01:08:34;;;;;;;;;;;;;;;15.20;100.00;96223.34;5031919;28;20023;-83
2023/05/24 01:11:05;;;;;;;;;;;;;;;15.23;100.00;96225.50;5053549;28;19924;-83
2023/05/24 01:13:36;;;;;;;;;;;;;;;15.25;100.00;96228.81;5031862;28;19925;-83
2023/05/24 01:16:05;;;;;;;;;;;;;;;15.24;100.00;96224.44;5030666;28;19932;-83
2023/05/24 01:18:34;;;;;;;;;;;;;;;15.14;100.00;96225.22;5034867;28;20008;-83
2023/05/24 01:21:11;;;;;;;;;;;;;;;15.14;100.00;96228.72;5031299;28;19940;-83
2023/05/24 01:23:44;;;;;;;;;;;;;;;15.11;100.00;96221.13;5031659;28;19931;-83
2023/05/24 01:26:19;;;;;;;;;;;;;;;15.00;100.00;96219.41;5033308;28;19956;-83
2023/05/24 01:28:49;;;;;;;;;;;;;;;14.96;100.00;96218.28;5035072;28;19978;-83
2023/05/24 01:31:16;;;;;;;;;;;;;;;14.99;100.00;96225.91;5032222;28;20006;-83
2023/05/24 01:33:43;;;;;;;;;;;;;;;14.93;100.00;96218.81;5032895;28;19925;-83
2023/05/24 01:36:10;;;;;;;;;;;;;;;14.98;100.00;96221.56;5032859;28;19932;-83
2023/05/24 01:38:39;;;;;;;;;;;;;;;14.96;100.00;96218.28;5043882;28;19947;-83
2023/05/24 01:41:14;;;;;;;;;;;;;;;14.93;100.00;96216.09;5037219;28;20366;-83
2023/05/24 01:43:45;;;;;;;;;;;;;;;14.96;100.00;96212.84;5031293;28;19933;-83
2023/05/24 01:46:19;;;;;;;;;;;;;;;14.97;100.00;96219.13;5021984;28;19956;-82
2023/05/24 01:48:53;;;;;;;;;;;;;;;14.97;100.00;96208.25;5045850;28;19925;-83
2023/05/24 01:51:23;;;;;;;;;;;;;;;14.96;100.00;96212.84;5032528;28;19987;-83
2023/05/24 01:53:51;;;;;;;;;;;;;;;14.97;100.00;96205.53;5055153;28;19948;-83
2023/05/24 01:56:20;;;;;;;;;;;;;;;15.00;100.00;96208.53;5052388;28;19925;-83
2023/05/24 01:58:51;;;;;;;;;;;;;;;15.05;100.00;96211.28;5016276;28;19947;-83
2023/05/24 02:01:19;;;;;;;;;;;;;;;15.12;100.00;96206.44;5014140;28;19964;-83
2023/05/24 02:03:47;;;;;;;;;;;;;;;15.10;100.00;96207.78;5020595;28;19929;-83
2023/05/24 02:06:13;;;;;;;;;;;;;;;15.09;100.00;96215.13;5013175;28;19933;-83
2023/05/24 02:08:40;;;;;;;;;;;;;;;15.07;100.00;96203.66;5029597;28;19931;-82
2023/05/24 02:11:07;;;;;;;;;;;;;;;15.11;100.00;96209.41;5008865;28;19972;-83
2023/05/24 02:13:33;;;;;;;;;;;;;;;15.10;100.00;96208.59;5026456;28;19935;-83
2023/05/24 02:16:00;;;;;;;;;;;;;;;15.08;100.00;96205.31;5009824;28;19925;-83
2023/05/24 02:18:33;;;;;;;;;;;;;;;15.05;100.00;96203.13;5038649;28;19955;-83
2023/05/24 02:21:00;;;;;;;;;;;;;;;15.00;100.00;96208.53;5039835;28;19932;-83
2023/05/24 02:23:26;;;;;;;;;;;;;;;14.99;100.00;96200.63;5011851;28;20111;-83
2023/05/24 02:25:53;;;;;;;;;;;;;;;14.96;100.00;96199.25;5027988;28;19932;-84
2023/05/24 02:28:20;;;;;;;;;;;;;;;14.95;100.00;96205.78;5008994;28;20040;-84
2023/05/24 02:30:47;;;;;;;;;;;;;;;14.95;100.00;96202.25;5016810;28;19925;-83
2023/05/24 02:33:14;;;;;;;;;;;;;;;14.92;100.00;96195.41;5011078;28;19928;-83
2023/05/24 02:35:42;;;;;;;;;;;;;;;14.87;100.00;96200.81;5025034;28;19928;-83
2023/05/24 02:38:09;;;;;;;;;;;;;;;14.88;100.00;96191.59;5006894;28;19929;-83
2023/05/24 02:40:35;;;;;;;;;;;;;;;14.94;100.00;96192.44;5030722;28;20023;-83
2023/05/24 02:43:03;;;;;;;;;;;;;;;14.94;100.00;96189.72;5017872;28;19931;-83
2023/05/24 02:45:30;;;;;;;;;;;;;;;15.00;100.00;96189.50;5027584;28;19944;-83
2023/05/24 02:47:56;;;;;;;;;;;;;;;15.03;100.00;96199.03;5034232;28;19924;-83
2023/05/24 02:50:24;;;;;;;;;;;;;;;15.05;100.00;96192.25;5011347;28;20103;-82
2023/05/24 02:52:53;;;;;;;;;;;;;;;15.08;100.00;96189.00;5034122;28;19950;-83
2023/05/24 02:55:21;;;;;;;;;;;;;;;15.09;100.00;96193.34;5009630;28;19928;-83
2023/05/24 02:57:47;;;;;;;;;;;;;;;15.04;100.00;96196.06;5020743;28;19984;-83
2023/05/24 03:00:15;;;;;;;;;;;;;;;15.03;100.00;96191.69;5010153;28;19925;-83
2023/05/24 03:02:43;;;;;;;;;;;;;;;15.02;100.00;96189.22;5012312;28;19925;-83
2023/05/24 03:05:10;;;;;;;;;;;;;;;15.04;100.00;96187.06;5030435;28;19968;-83
2023/05/24 03:07:37;;;;;;;;;;;;;;;15.09;100.00;96189.81;5018192;28;19925;-83
2023/05/24 03:10:05;;;;;;;;;;;;;;;15.12;100.00;96181.97;5011214;28;19929;-83
2023/05/24 03:12:33;;;;;;;;;;;;;;;15.14;100.00;96193.38;5025141;28;19936;-83
2023/05/24 03:15:00;;;;;;;;;;;;;;;15.09;100.00;96195.25;5024313;28;20192;-83
2023/05/24 03:17:27;;;;;;;;;;;;;;;15.02;100.00;96192.78;5019685;28;19980;-83
2023/05/24 03:19:54;;;;;;;;;;;;;;;14.99;100.00;96190.56;5016713;28;19940;-82
2023/05/24 03:22:21;;;;;;;;;;;;;;;14.93;100.00;96197.06;5017600;28;19983;-83
2023/05/24 03:24:48;;;;;;;;;;;;;;;14.90;100.00;96189.41;5004817;28;20161;-83
2023/05/24 03:27:16;;;;;;;;;;;;;;;14.87;100.00;96197.28;5033979;28;19956;-83
2023/05/24 03:29:43;;;;;;;;;;;;;;;14.78;100.00;96191.50;5031440;28;19925;-83
2023/05/24 03:32:10;;;;;;;;;;;;;;;14.70;100.00;96200.16;5014852;28;19933;-82
2023/05/24 03:34:37;;;;;;;;;;;;;;;14.69;100.00;96201.22;5014900;28;19924;-83
2023/05/24 03:37:04;;;;;;;;;;;;;;;14.68;100.00;96202.31;5042994;28;19925;-83
2023/05/24 03:39:31;;;;;;;;;;;;;;;14.68;100.00;96205.00;5027017;28;19957;-83
2023/05/24 03:42:11;;;;;;;;;;;;;;;14.70;100.00;96211.03;5030865;28;19983;-82
2023/05/24 03:44:40;;;;;;;;;;;;;;;14.67;100.00;96204.19;5016830;28;19929;-83
2023/05/24 03:47:06;;;;;;;;;;;;;;;14.66;100.00;96207.16;5036473;28;19925;-82
2023/05/24 03:49:33;;;;;;;;;;;;;;;14.69;100.00;96209.38;5015402;28;19929;-82
2023/05/24 03:52:01;;;;;;;;;;;;;;;14.66;100.00;96209.88;5015266;28;19933;-83
2023/05/24 03:54:27;;;;;;;;;;;;;;;14.73;100.00;96214.03;5017940;28;20009;-82
2023/05/24 03:56:54;;;;;;;;;;;;;;;14.73;100.00;96213.19;5044255;28;20020;-83
2023/05/24 03:59:22;;;;;;;;;;;;;;;14.74;100.00;96217.56;5032109;28;19925;-83
2023/05/24 04:01:50;;;;;;;;;;;;;;;14.71;100.00;96215.38;5048679;28;19925;-83
2023/05/24 04:04:17;;;;;;;;;;;;;;;14.72;100.00;96211.56;5029345;28;19929;-82
2023/05/24 04:06:44;;;;;;;;;;;;;;;14.70;100.00;96213.75;5049882;28;19929;-83
2023/05/24 04:09:10;;;;;;;;;;;;;;;14.64;100.00;96209.31;5055841;28;19971;-82
2023/05/24 04:11:37;;;;;;;;;;;;;;;14.63;100.00;96205.78;5057580;28;19951;-82
2023/05/24 04:14:05;;;;;;;;;;;;;;;14.68;100.00;96214.00;5046182;28;19940;-83
2023/05/24 04:16:33;;;;;;;;;;;;;;;14.70;100.00;96208.31;5032700;28;19970;-83
2023/05/24 04:19:02;;;;;;;;;;;;;;;14.70;100.00;96209.13;5031043;28;19996;-83
2023/05/24 04:21:31;;;;;;;;;;;;;;;14.64;100.00;96214.75;5037412;28;19925;-83
2023/05/24 04:23:59;;;;;;;;;;;;;;;14.59;100.00;96212.00;5035856;28;19925;-83
2023/05/24 04:26:26;;;;;;;;;;;;;;;14.57;100.00;96208.72;5035536;28;19932;-83
2023/05/24 04:28:52;;;;;;;;;;;;;;;14.62;100.00;96206.06;5031294;28;19933;-83
2023/05/24 04:31:20;;;;;;;;;;;;;;;14.58;100.00;96219.34;5046426;28;19925;-84
2023/05/24 04:33:48;;;;;;;;;;;;;;;14.60;100.00;96209.03;5037582;28;19968;-83
2023/05/24 04:36:18;;;;;;;;;;;;;;;14.58;100.00;96204.94;5048842;28;19929;-83
2023/05/24 04:38:45;;;;;;;;;;;;;;;14.55;100.00;96202.72;5046085;28;19935;-84
2023/05/24 04:41:12;;;;;;;;;;;;;;;14.53;100.00;96207.63;5041554;28;19960;-84
2023/05/24 04:43:39;;;;;;;;;;;;;;;14.66;100.00;96212.59;5039108;28;19974;-83
2023/05/24 04:46:06;;;;;;;;;;;;;;;14.69;100.00;96209.38;5050413;28;19931;-84
2023/05/24 04:48:34;;;;;;;;;;;;;;;14.72;100.00;96217.00;5040472;28;19959;-83
2023/05/24 04:51:00;;;;;;;;;;;;;;;14.71;100.00;96216.19;5032585;28;19925;-83
2023/05/24 04:53:29;;;;;;;;;;;;;;;14.75;100.00;96213.78;5034103;28;20168;-83
2023/05/24 04:55:55;;;;;;;;;;;;;;;14.78;100.00;96221.41;5046692;28;19947;-83
2023/05/24 04:58:22;;;;;;;;;;;;;;;14.77;100.00;96212.44;5043753;28;19950;-84
2023/05/24 05:00:49;;;;;;;;;;;;;;;14.74;100.00;96212.94;5043636;28;19928;-84
2023/05/24 05:03:16;;;;;;;;;;;;;;;14.78;100.00;96224.13;5044357;28;19957;-83
2023/05/24 05:05:43;;;;;;;;;;;;;;;14.79;100.00;96222.22;5028151;28;19933;-83
2023/05/24 05:08:10;;;;;;;;;;;;;;;14.82;100.00;96219.78;5036967;28;20020;-84
2023/05/24 05:10:38;;;;;;;;;;;;;;;14.82;100.00;96217.06;5045503;28;19925;-83
2023/05/24 05:13:05;;;;;;;;;;;;;;;14.83;100.00;96212.47;5045635;28;19991;-83
2023/05/24 05:15:31;;;;;;;;;;;;;;;14.80;100.00;96223.88;5049654;28;20011;-83
2023/05/24 05:17:58;;;;;;;;;;;;;;;14.80;100.00;96223.88;5029668;28;19944;-83
2023/05/24 05:20:25;;;;;;;;;;;;;;;14.77;100.00;96223.31;5047848;28;19927;-83
2023/05/24 05:22:51;;;;;;;;;;;;;;;14.76;100.00;96227.09;5034716;28;20006;-83
2023/05/24 05:25:18;;;;;;;;;;;;;;;14.72;100.00;96223.25;5038562;28;19925;-83
2023/05/24 05:27:46;;;;;;;;;;;;;;;14.77;100.00;96222.50;5038684;28;19933;-83
2023/05/24 05:30:13;;;;;;;;;;;;;;;14.77;100.00;96226.03;5047360;28;19924;-83
2023/05/24 05:32:40;;;;;;;;;;;;;;;14.76;100.00;96218.13;5040487;28;19926;-83
2023/05/24 05:35:07;;;;;;;;;;;;;;;14.71;100.00;96215.38;5031742;28;19929;-83
2023/05/24 05:37:34;;;;;;;;;;;;;;;14.64;100.00;96217.47;5024919;28;20397;-83
2023/05/24 05:40:02;;;;;;;;;;;;;;;14.61;100.00;96210.69;5048891;28;19929;-83
2023/05/24 05:42:29;;;;;;;;;;;;;;;14.66;100.00;96218.03;5042700;28;19929;-83
2023/05/24 05:44:58;;;;;;;;;;;;;;;14.69;100.00;96214.81;5032342;28;19928;-83
2023/05/24 05:47:25;;;;;;;;;;;;;;;14.71;100.00;96216.19;5048890;28;19932;-83
2023/05/24 05:49:51;;;;;;;;;;;;;;;14.69;100.00;96223.78;5032463;28;19924;-83
2023/05/24 05:52:18;;;;;;;;;;;;;;;14.72;100.00;96222.44;5046736;28;20000;-83
2023/05/24 05:54:45;;;;;;;;;;;;;;;14.71;100.00;96228.97;5049510;28;19935;-82
2023/05/24 05:57:12;;;;;;;;;;;;;;;14.63;100.00;96229.44;5046767;28;19925;-83
2023/05/24 05:59:39;;;;;;;;;;;;;;;14.59;100.00;96231.03;5042659;28;19925;-82
2023/05/24 06:02:08;;;;;;;;;;;;;;;14.61;100.00;96235.13;5049615;28;19996;-82
2023/05/24 06:04:34;;;;;;;;;;;;;;;14.53;100.00;96240.22;5037194;28;19929;-83
2023/05/24 06:07:01;;;;;;;;;;;;;;;14.50;100.00;96235.28;5038348;28;19924;-83
2023/05/24 06:09:29;;;;;;;;;;;;;;;14.38;100.00;96236.25;5031854;28;19925;-82
2023/05/24 06:11:55;;;;;;;;;;;;;;;14.36;100.00;96235.69;5044940;28;19960;-82
2023/05/24 06:14:23;;;;;;;;;;;;;;;14.32;100.00;96234.53;5034398;28;19925;-82
2023/05/24 06:16:51;;;;;;;;;;;;;;;14.32;100.00;96234.53;5028948;28;19971;-83
2023/05/24 06:19:20;;;;;;;;;;;;;;;14.27;100.00;96231.78;5025436;28;19925;-83
2023/05/24 06:21:49;;;;;;;;;;;;;;;14.25;100.00;96242.09;5042285;28;19970;-83
2023/05/24 06:24:19;;;;;;;;;;;;;;;14.22;100.00;96244.47;5030254;28;19932;-83
2023/05/24 06:26:46;;;;;;;;;;;;;;;14.24;100.00;96245.03;5055526;28;19925;-82
2023/05/24 06:29:12;;;;;;;;;;;;;;;14.29;100.00;96240.47;5034009;28;19939;-83
2023/05/24 06:31:42;;;;;;;;;;;;;;;14.30;100.00;96246.72;5031662;28;19925;-83
2023/05/24 06:34:08;;;;;;;;;;;;;;;14.25;100.00;96254.84;5048999;28;19968;-82
2023/05/24 06:36:40;;;;;;;;;;;;;;;14.31;100.00;96243.75;5051217;28;19971;-83
2023/05/24 06:39:07;;;;;;;;;;;;;;;14.40;100.00;96252.31;5048157;28;19925;-82
2023/05/24 06:41:34;;;;;;;;;;;;;;;14.43;100.00;96251.81;5037397;28;19929;-83
2023/05/24 06:44:01;;;;;;;;;;;;;;;14.45;100.00;96244.22;5049876;28;19952;-82
2023/05/24 06:46:27;;;;;;;;;;;;;;;14.45;100.00;96252.38;5044050;28;20168;-82
2023/05/24 06:48:54;;;;;;;;;;;;;;;14.53;100.00;96251.09;5035628;28;19924;-83
2023/05/24 06:51:21;;;;;;;;;;;;;;;14.47;100.00;96257.53;5045212;28;19924;-82
2023/05/24 06:53:49;;;;;;;;;;;;;;;14.52;100.00;96255.69;5030309;28;19929;-83
2023/05/24 06:56:16;;;;;;;;;;;;;;;14.52;100.00;96265.75;5039585;28;19955;-83
2023/05/24 06:58:43;;;;;;;;;;;;;;;14.54;100.00;96261.69;5031437;28;19980;-83
2023/05/24 07:01:10;;;;;;;;;;;;;;;14.53;100.00;96264.66;5053010;28;19925;-82
2023/05/24 07:03:37;;;;;;;;;;;;;;;14.56;100.00;96261.41;5052245;28;19925;-82
2023/05/24 07:06:04;;;;;;;;;;;;;;;14.55;100.00;96266.03;5031264;28;19931;-83
2023/05/24 07:08:32;;;;;;;;;;;;;;;14.54;100.00;96272.56;5038897;28;19936;-83
2023/05/24 07:11:01;;;;;;;;;;;;;;;14.58;100.00;96265.53;5038224;28;19933;-82
2023/05/24 07:13:27;;;;;;;;;;;;;;;14.64;100.00;96269.09;5026678;28;19924;-82
2023/05/24 07:15:54;;;;;;;;;;;;;;;14.69;100.00;96269.16;5040184;28;19947;-82
2023/05/24 07:18:21;;;;;;;;;;;;;;;14.70;100.00;96265.38;5045549;28;19936;-82
2023/05/24 07:20:48;;;;;;;;;;;;;;;14.69;100.00;96261.84;5030960;28;20112;-83
2023/05/24 07:23:14;;;;;;;;;;;;;;;14.75;100.00;96266.22;5024730;28;19928;-82
2023/05/24 07:25:41;;;;;;;;;;;;;;;14.79;100.00;96263.81;5030817;28;19936;-82
2023/05/24 07:28:10;;;;;;;;;;;;;;;14.79;100.00;96271.97;5063855;28;20011;-82
2023/05/24 07:30:38;;;;;;;;;;;;;;;14.80;100.00;96265.44;5038699;28;19929;-82
2023/05/24 07:33:05;;;;;;;;;;;;;;;14.81;100.00;96267.09;5052721;28;19931;-82
2023/05/24 07:35:32;;;;;;;;;;;;;;;14.78;100.00;96270.34;5034053;28;19932;-82
2023/05/24 07:37:59;;;;;;;;;;;;;;;14.78;100.00;96264.91;5047575;28;20028;-83
2023/05/24 07:40:26;;;;;;;;;;;;;;;14.71;100.00;96267.03;5061211;28;19924;-82
2023/05/24 07:42:53;;;;;;;;;;;;;;;14.68;100.00;96265.63;5046799;28;19935;-83
2023/05/24 07:45:21;;;;;;;;;;;;;;;14.74;100.00;96252.88;5037409;28;19925;-83
2023/05/24 07:47:48;;;;;;;;;;;;;;;14.76;100.00;96267.06;5057197;28;19924;-82
2023/05/24 07:50:15;;;;;;;;;;;;;;;14.72;100.00;96255.88;5044748;28;19924;-83
2023/05/24 07:52:43;;;;;;;;;;;;;;;14.77;100.00;96253.22;5039859;28;19924;-83
2023/05/24 07:55:10;;;;;;;;;;;;;;;14.89;100.00;96261.16;5051151;28;20008;-83
2023/05/24 07:57:37;;;;;;;;;;;;;;;14.86;100.00;96267.16;5038083;28;19945;-83
2023/05/24 08:00:13;;;;;;;;;;;;;;;14.87;100.00;96251.66;5037513;28;19933;-83
2023/05/24 08:02:42;;;;;;;;;;;;;;;14.85;100.00;96264.69;5048624;28;20016;-83
2023/05/24 08:05:11;;;;;;;;;;;;;;;14.92;100.00;96260.66;5026349;28;19935;-82
2023/05/24 08:07:40;;;;;;;;;;;;;;;14.92;100.00;96260.66;5043752;28;20027;-83
2023/05/24 08:10:07;;;;;;;;;;;;;;;14.98;100.00;96256.91;5036668;28;19928;-83
2023/05/24 08:12:35;;;;;;;;;;;;;;;15.04;100.00;96253.16;5032383;28;19929;-83
2023/05/24 08:15:01;;;;;;;;;;;;;;;15.05;100.00;96260.25;5045389;28;19929;-82
2023/05/24 08:17:30;;;;;;;;;;;;;;;15.15;100.00;96259.47;5035198;28;19952;-83
2023/05/24 08:19:58;;;;;;;;;;;;;;;15.14;100.00;96252.41;5030379;28;19943;-82
2023/05/24 08:22:25;;;;;;;;;;;;;;;15.11;100.00;96256.47;5030649;28;19970;-83
2023/05/24 08:24:52;;;;;;;;;;;;;;;15.11;100.00;96264.63;5031901;28;19932;-82
2023/05/24 08:27:19;;;;;;;;;;;;;;;15.06;100.00;96261.03;5032314;28;19948;-83
2023/05/24 08:29:46;;;;;;;;;;;;;;;15.06;100.00;96264.56;5045689;28;19988;-83
2023/05/24 08:32:13;;;;;;;;;;;;;;;15.12;100.00;96268.16;5046401;28;19978;-83
2023/05/24 08:34:39;;;;;;;;;;;;;;;15.14;100.00;96266.00;5035517;28;19935;-83
2023/05/24 08:37:09;;;;;;;;;;;;;;;15.19;100.00;96267.94;5035244;28;19925;-83
2023/05/24 08:39:36;;;;;;;;;;;;;;;15.17;100.00;96270.91;5046708;28;19929;-82
2023/05/24 08:42:05;;;;;;;;;;;;;;;15.15;100.00;96273.88;5043708;28;19931;-83
2023/05/24 08:44:32;;;;;;;;;;;;;;;15.23;100.00;96277.19;5048571;28;19936;-81
2023/05/24 08:46:59;;;;;;;;;;;;;;;15.21;100.00;96274.75;5035417;28;19925;-83
2023/05/24 08:49:28;;;;;;;;;;;;;;;15.19;100.00;96274.19;5032350;28;19925;-82
2023/05/24 08:51:55;;;;;;;;;;;;;;;15.19;100.00;96281.53;5053367;28;19928;-83
2023/05/24 08:54:23;;;;;;;;;;;;;;;15.25;100.00;96280.47;5047574;28;19925;-83
2023/05/24 08:56:51;;;;;;;;;;;;;;;15.17;100.00;96289.13;5041906;28;19928;-83
2023/05/24 08:59:18;;;;;;;;;;;;;;;15.15;100.00;96283.94;5022995;28;19925;-83
2023/05/24 09:01:48;;;;;;;;;;;;;;;15.15;100.00;96279.31;5042876;28;19925;-83
2023/05/24 09:04:14;;;;;;;;;;;;;;;15.19;100.00;96284.25;5048714;28;19947;-83
2023/05/24 09:06:41;;;;;;;;;;;;;;;15.18;100.00;96291.59;5047773;28;19932;-83
2023/05/24 09:09:09;;;;;;;;;;;;;;;15.19;100.00;96284.25;5035692;28;20067;-82
2023/05/24 09:11:40;;;;;;;;;;;;;;;15.15;100.00;96287.50;5028346;28;19925;-83
2023/05/24 09:14:07;;;;;;;;;;;;;;;15.22;100.00;96286.47;5046602;28;19944;-83
2023/05/24 09:16:34;;;;;;;;;;;;;;;15.25;100.00;96288.66;5048488;28;19925;-83
2023/05/24 09:19:02;;;;;;;;;;;;;;;15.26;100.00;96284.84;5050709;28;19951;-83
2023/05/24 09:21:29;;;;;;;;;;;;;;;15.28;100.00;96285.41;5026629;28;20015;-83
2023/05/24 09:23:57;;;;;;;;;;;;;;;15.37;100.00;96289.28;5028735;28;19924;-83
2023/05/24 09:26:25;;;;;;;;;;;;;;;15.38;100.00;96285.50;5030818;28;19933;-83
2023/05/24 09:28:57;;;;;;;;;;;;;;;15.37;100.00;96289.28;5034901;28;19944;-83
2023/05/24 09:31:32;;;;;;;;;;;;;;;15.41;100.00;96290.38;5032752;28;19932;-82
2023/05/24 09:33:59;;;;;;;;;;;;;;;15.44;100.00;96281.72;5048899;28;19936;-83
2023/05/24 09:36:28;;;;;;;;;;;;;;;15.46;100.00;96282.28;5037043;28;19928;-83
2023/05/24 09:39:07;;;;;;;;;;;;;;;15.51;100.00;96285.00;5031723;28;19975;-83
2023/05/24 09:41:34;;;;;;;;;;;;;;;15.66;100.00;96287.03;5029966;28;19975;-83
2023/05/24 09:44:03;;;;;;;;;;;;;;;15.70;100.00;96277.28;5045776;28;19932;-82
2023/05/24 09:46:35;;;;;;;;;;;;;;;15.69;100.00;96287.34;5027307;28;19932;-82
2023/05/24 09:49:05;;;;;;;;;;;;;;;15.70;100.00;96280.81;5041361;28;19951;-83
2023/05/24 09:51:33;;;;;;;;;;;;;;;15.71;100.00;96279.72;5027722;28;19925;-83
2023/05/24 09:54:01;;;;;;;;;;;;;;;15.76;100.00;96287.91;5045097;28;19929;-83
2023/05/24 09:56:28;;;;;;;;;;;;;;;15.83;100.00;96288.50;5041587;28;19925;-82
2023/05/24 09:58:55;;;;;;;;;;;;;;;15.92;100.00;96287.97;5045387;28;19925;-83
2023/05/24 10:01:25;;;;;;;;;;;;;;;15.93;100.00;96286.91;5049630;28;19944;-83
2023/05/24 10:03:52;;;;;;;;;;;;;;;15.93;100.00;96292.34;5050186;28;20059;-83
2023/05/24 10:06:20;;;;;;;;;;;;;;;15.88;100.00;96295.88;5046648;28;20019;-83
2023/05/24 10:08:48;;;;;;;;;;;;;;;15.91;100.00;96294.53;5026533;28;20016;-82
2023/05/24 10:11:14;;;;;;;;;;;;;;;15.84;100.00;96286.59;5026986;28;19983;-82
2023/05/24 10:13:42;;;;;;;;;;;;;;;15.71;100.00;96279.72;5028651;28;19936;-82
2023/05/24 10:16:09;;;;;;;;;;;;;;;15.65;100.00;96290.88;5028726;28;19933;-82
2023/05/24 10:18:38;;;;;;;;;;;;;;;15.68;100.00;96296.59;5031814;28;19929;-83
2023/05/24 10:21:07;;;;;;;;;;;;;;;15.75;100.00;96290.91;5044778;28;19932;-82
2023/05/24 10:23:34;;;;;;;;;;;;;;;15.85;100.00;96285.50;5046105;28;20034;-83
2023/05/24 10:26:05;;;;;;;;;;;;;;;15.87;100.00;96281.44;5043111;28;19939;-83
2023/05/24 10:28:33;;;;;;;;;;;;;;;16.00;100.00;96277.41;5031954;28;19947;-82
2023/05/24 10:31:06;;;;;;;;;;;;;;;15.80;100.00;96271.88;5035619;28;19987;-82
2023/05/24 10:33:36;;;;;;;;;;;;;;;15.81;100.00;96273.53;5045109;28;19937;-82
2023/05/24 10:36:05;;;;;;;;;;;;;;;15.78;100.00;96268.59;5039723;28;19928;-82
2023/05/24 10:38:32;;;;;;;;;;;;;;;15.58;100.00;96272.03;5026565;28;19925;-82
2023/05/24 10:40:59;;;;;;;;;;;;;;;15.61;100.00;96267.97;5029972;28;19959;-82
2023/05/24 10:43:26;;;;;;;;;;;;;;;15.60;100.00;96277.22;5048181;28;19947;-82
2023/05/24 10:45:53;;;;;;;;;;;;;;;15.55;100.00;96275.28;5029337;28;19952;-82
2023/05/24 10:48:32;;;;;;;;;;;;;;;15.54;100.00;96268.19;5041202;28;19931;-82
2023/05/24 10:51:01;;;;;;;;;;;;;;;15.62;100.00;96264.97;5044108;28;20024;-82
2023/05/24 10:53:29;;;;;;;;;;;;;;;15.54;100.00;96268.19;5029015;28;20084;-82
2023/05/24 10:55:57;;;;;;;;;;;;;;;15.61;100.00;96276.94;5044900;28;19928;-81
2023/05/24 10:58:29;;;;;;;;;;;;;;;15.62;100.00;96264.16;5026133;28;19925;-82
2023/05/24 11:00:56;;;;;;;;;;;;;;;15.69;100.00;96271.00;5022108;28;19983;-82
2023/05/24 11:03:26;;;;;;;;;;;;;;;15.79;100.00;96271.06;5025323;28;19931;-82
2023/05/24 11:05:54;;;;;;;;;;;;;;;15.76;100.00;96277.03;5022864;28;19925;-82
2023/05/24 11:08:25;;;;;;;;;;;;;;;15.76;100.00;96263.41;5031906;28;19932;-82
2023/05/24 11:11:04;;;;;;;;;;;;;;;15.74;100.00;96275.63;5032453;28;20035;-82
2023/05/24 11:13:32;;;;;;;;;;;;;;;15.77;100.00;96265.06;5030460;28;19925;-82
2023/05/24 11:16:00;;;;;;;;;;;;;;;15.64;100.00;96276.44;5051134;28;20006;-82
2023/05/24 11:18:27;;;;;;;;;;;;;;;15.63;100.00;96260.34;5028125;28;19955;-82
2023/05/24 11:20:55;;;;;;;;;;;;;;;15.73;100.00;96263.97;5048653;28;19951;-82
2023/05/24 11:23:22;;;;;;;;;;;;;;;15.75;100.00;96266.41;5048314;28;19928;-82
2023/05/24 11:25:48;;;;;;;;;;;;;;;15.76;100.00;96268.84;5027851;28;19925;-82
2023/05/24 11:28:17;;;;;;;;;;;;;;;15.78;100.00;96269.41;5037752;28;19952;-82
2023/05/24 11:30:44;;;;;;;;;;;;;;;15.77;100.00;96267.78;5053245;28;19925;-83
2023/05/24 11:33:15;;;;;;;;;;;;;;;15.71;100.00;96268.03;5048276;28;19964;-82
2023/05/24 11:35:42;;;;;;;;;;;;;;;15.66;100.00;96271.53;5050632;28;19983;-83
2023/05/24 11:38:12;;;;;;;;;;;;;;;15.63;100.00;96266.63;5049656;28;19932;-83
2023/05/24 11:40:43;;;;;;;;;;;;;;;15.67;100.00;96267.72;5033050;28;19925;-83
2023/05/24 11:43:11;;;;;;;;;;;;;;;15.61;100.00;96273.41;5035079;28;19933;-83
2023/05/24 11:45:41;;;;;;;;;;;;;;;15.62;100.00;96275.88;5030518;28;19939;-83
2023/05/24 11:48:08;;;;;;;;;;;;;;;15.64;100.00;96284.59;5031433;28;20003;-83
2023/05/24 11:50:38;;;;;;;;;;;;;;;15.59;100.00;96276.38;5048642;28;19928;-82
2023/05/24 11:53:05;;;;;;;;;;;;;;;15.50;100.00;96276.03;5031392;28;19925;-83
2023/05/24 11:55:32;;;;;;;;;;;;;;;15.52;100.00;96278.50;5041649;28;19931;-82
2023/05/24 11:58:00;;;;;;;;;;;;;;;15.58;100.00;96279.38;5035502;28;19937;-82
2023/05/24 12:00:27;;;;;;;;;;;;;;;15.53;100.00;96280.13;5049953;28;19925;-82
2023/05/24 12:03:00;;;;;;;;;;;;;;;15.43;100.00;96272.72;5040751;28;19947;-83
2023/05/24 12:05:30;;;;;;;;;;;;;;;15.37;100.00;96279.22;5031552;28;19925;-81
2023/05/24 12:08:03;;;;;;;;;;;;;;;15.32;100.00;96271.00;5056084;28;19975;-82
2023/05/24 12:10:31;;;;;;;;;;;;;;;15.31;100.00;96276.75;5046301;28;19928;-82
2023/05/24 12:12:58;;;;;;;;;;;;;;;15.33;100.00;96278.09;5059331;28;19925;-83
2023/05/24 12:15:25;;;;;;;;;;;;;;;15.44;100.00;96279.81;5057814;28;19940;-83
2023/05/24 12:17:52;;;;;;;;;;;;;;;15.35;100.00;96272.41;5032191;28;19956;-83
2023/05/24 12:20:20;;;;;;;;;;;;;;;15.32;100.00;96281.06;5046253;28;19925;-83
2023/05/24 12:22:51;;;;;;;;;;;;;;;15.25;100.00;96281.31;5036570;28;19925;-83
2023/05/24 12:25:20;;;;;;;;;;;;;;;15.24;100.00;96282.38;5053568;28;19924;-83
2023/05/24 12:27:47;;;;;;;;;;;;;;;15.04;100.00;96280.34;5061232;28;19924;-83
2023/05/24 12:30:19;;;;;;;;;;;;;;;14.94;100.00;96282.16;5035818;28;19924;-83
2023/05/24 12:32:46;;;;;;;;;;;;;;;15.00;100.00;96290.09;5060333;28;19925;-83
2023/05/24 12:35:13;;;;;;;;;;;;;;;15.05;100.00;96283.88;5036934;28;19924;-83
2023/05/24 12:37:42;;;;;;;;;;;;;;;15.06;100.00;96291.75;5040084;28;19925;-82
2023/05/24 12:40:16;;;;;;;;;;;;;;;15.06;100.00;96288.22;5029391;28;19956;-82